sensor_id;sensor_type;location;lat;lon;timestamp;P1;durP1;ratioP1;P2;durP2;ratioP2
50128;SDS011;36026;45.478;9.224;2022-10-31T00:00:10;17.63;;;10.82;;
50128;SDS011;36026;45.478;9.224;2022-10-31T00:03:13;17.88;;;10.00;;
50128;SDS011;36026;45.478;9.224;2022-10-31T00:06:15;16.80;;;10.68;;
50128;SDS011;36026;45.478;9.224;2022-10-31T00:09:18;17.67;;;10.30;;
50128;SDS011;36026;45.478;9.224;2022-10-31T00:12:20;23.08;;;10.93;;
50128;SDS011;36026;45.478;9.224;2022-10-31T00:15:23;19.40;;;9.70;;
50128;SDS011;36026;45.478;9.224;2022-10-31T00:18:24;25.17;;;10.57;;
50128;SDS011;36026;45.478;9.224;2022-10-31T00:21:26;15.90;;;9.80;;
50128;SDS011;36026;45.478;9.224;2022-10-31T00:24:28;16.98;;;10.27;;
50128;SDS011;36026;45.478;9.224;2022-10-31T00:27:29;19.55;;;10.10;;
50128;SDS011;36026;45.478;9.224;2022-10-31T00:30:32;17.55;;;9.43;;
50128;SDS011;36026;45.478;9.224;2022-10-31T00:33:35;15.70;;;9.63;;
50128;SDS011;36026;45.478;9.224;2022-10-31T00:36:37;19.60;;;10.52;;
50128;SDS011;36026;45.478;9.224;2022-10-31T00:39:39;16.80;;;9.90;;
50128;SDS011;36026;45.478;9.224;2022-10-31T00:42:40;19.50;;;10.13;;
50128;SDS011;36026;45.478;9.224;2022-10-31T00:45:43;17.73;;;10.15;;
50128;SDS011;36026;45.478;9.224;2022-10-31T00:48:45;17.90;;;9.90;;
50128;SDS011;36026;45.478;9.224;2022-10-31T00:51:47;17.35;;;10.43;;
50128;SDS011;36026;45.478;9.224;2022-10-31T00:54:48;20.40;;;10.05;;
50128;SDS011;36026;45.478;9.224;2022-10-31T00:57:50;21.95;;;10.52;;
50128;SDS011;36026;45.478;9.224;2022-10-31T01:00:53;16.48;;;10.23;;
50128;SDS011;36026;45.478;9.224;2022-10-31T01:03:55;21.30;;;10.32;;
50128;SDS011;36026;45.478;9.224;2022-10-31T01:06:57;20.52;;;10.43;;
50128;SDS011;36026;45.478;9.224;2022-10-31T01:09:59;18.83;;;10.00;;
50128;SDS011;36026;45.478;9.224;2022-10-31T01:13:00;16.42;;;9.52;;
50128;SDS011;36026;45.478;9.224;2022-10-31T01:16:04;18.90;;;9.82;;
50128;SDS011;36026;45.478;9.224;2022-10-31T01:19:07;16.90;;;9.23;;
50128;SDS011;36026;45.478;9.224;2022-10-31T01:22:08;16.25;;;9.50;;
50128;SDS011;36026;45.478;9.224;2022-10-31T01:25:10;24.50;;;10.30;;
50128;SDS011;36026;45.478;9.224;2022-10-31T01:28:12;14.05;;;9.38;;
50128;SDS011;36026;45.478;9.224;2022-10-31T01:31:15;16.35;;;9.27;;
50128;SDS011;36026;45.478;9.224;2022-10-31T01:37:18;16.92;;;9.80;;
50128;SDS011;36026;45.478;9.224;2022-10-31T01:40:20;20.13;;;10.70;;
50128;SDS011;36026;45.478;9.224;2022-10-31T01:43:22;20.92;;;11.23;;
50128;SDS011;36026;45.478;9.224;2022-10-31T01:46:25;19.00;;;10.52;;
50128;SDS011;36026;45.478;9.224;2022-10-31T01:49:31;15.85;;;9.10;;
50128;SDS011;36026;45.478;9.224;2022-10-31T01:52:35;18.13;;;9.25;;
50128;SDS011;36026;45.478;9.224;2022-10-31T01:55:40;14.57;;;8.60;;
50128;SDS011;36026;45.478;9.224;2022-10-31T01:58:43;21.50;;;8.93;;
50128;SDS011;36026;45.478;9.224;2022-10-31T02:01:47;17.23;;;8.80;;
50128;SDS011;36026;45.478;9.224;2022-10-31T02:04:50;18.45;;;9.50;;
50128;SDS011;36026;45.478;9.224;2022-10-31T02:07:54;15.77;;;9.45;;
50128;SDS011;36026;45.478;9.224;2022-10-31T02:10:58;18.23;;;10.48;;
50128;SDS011;36026;45.478;9.224;2022-10-31T02:17:05;19.95;;;9.30;;
50128;SDS011;36026;45.478;9.224;2022-10-31T02:20:09;21.20;;;9.87;;
50128;SDS011;36026;45.478;9.224;2022-10-31T02:23:20;14.88;;;8.65;;
50128;SDS011;36026;45.478;9.224;2022-10-31T02:26:34;17.88;;;9.68;;
50128;SDS011;36026;45.478;9.224;2022-10-31T02:30:04;14.37;;;8.70;;
50128;SDS011;36026;45.478;9.224;2022-10-31T02:33:11;15.00;;;9.40;;
50128;SDS011;36026;45.478;9.224;2022-10-31T02:36:18;17.92;;;9.60;;
50128;SDS011;36026;45.478;9.224;2022-10-31T02:39:24;14.02;;;9.18;;
50128;SDS011;36026;45.478;9.224;2022-10-31T02:42:29;20.27;;;9.05;;
50128;SDS011;36026;45.478;9.224;2022-10-31T02:45:35;14.48;;;8.43;;
50128;SDS011;36026;45.478;9.224;2022-10-31T02:48:43;13.43;;;8.35;;
50128;SDS011;36026;45.478;9.224;2022-10-31T02:51:45;14.65;;;8.43;;
50128;SDS011;36026;45.478;9.224;2022-10-31T02:54:47;14.40;;;8.85;;
50128;SDS011;36026;45.478;9.224;2022-10-31T02:57:49;16.42;;;9.25;;
50128;SDS011;36026;45.478;9.224;2022-10-31T03:04:34;16.30;;;8.32;;
50128;SDS011;36026;45.478;9.224;2022-10-31T03:07:47;14.75;;;7.63;;
50128;SDS011;36026;45.478;9.224;2022-10-31T03:10:54;13.00;;;7.78;;
50128;SDS011;36026;45.478;9.224;2022-10-31T03:13:59;14.77;;;8.23;;
50128;SDS011;36026;45.478;9.224;2022-10-31T03:17:03;16.60;;;8.38;;
50128;SDS011;36026;45.478;9.224;2022-10-31T03:20:08;17.08;;;8.27;;
50128;SDS011;36026;45.478;9.224;2022-10-31T03:23:12;14.63;;;7.50;;
50128;SDS011;36026;45.478;9.224;2022-10-31T03:26:15;13.18;;;7.55;;
50128;SDS011;36026;45.478;9.224;2022-10-31T03:29:18;13.30;;;7.32;;
50128;SDS011;36026;45.478;9.224;2022-10-31T03:32:22;14.18;;;7.38;;
50128;SDS011;36026;45.478;9.224;2022-10-31T03:35:26;12.80;;;6.95;;
50128;SDS011;36026;45.478;9.224;2022-10-31T03:38:28;12.65;;;7.10;;
50128;SDS011;36026;45.478;9.224;2022-10-31T03:41:31;16.30;;;7.25;;
50128;SDS011;36026;45.478;9.224;2022-10-31T03:44:36;14.65;;;7.20;;
50128;SDS011;36026;45.478;9.224;2022-10-31T03:47:40;12.95;;;8.10;;
50128;SDS011;36026;45.478;9.224;2022-10-31T03:50:44;12.30;;;7.80;;
50128;SDS011;36026;45.478;9.224;2022-10-31T03:53:51;14.07;;;7.53;;
50128;SDS011;36026;45.478;9.224;2022-10-31T03:56:56;16.00;;;7.72;;
50128;SDS011;36026;45.478;9.224;2022-10-31T04:00:01;14.98;;;7.78;;
50128;SDS011;36026;45.478;9.224;2022-10-31T04:03:05;13.40;;;6.88;;
50128;SDS011;36026;45.478;9.224;2022-10-31T04:06:10;18.10;;;7.65;;
50128;SDS011;36026;45.478;9.224;2022-10-31T04:09:13;13.55;;;7.25;;
50128;SDS011;36026;45.478;9.224;2022-10-31T04:12:16;16.48;;;7.22;;
50128;SDS011;36026;45.478;9.224;2022-10-31T04:15:18;12.95;;;7.15;;
50128;SDS011;36026;45.478;9.224;2022-10-31T04:18:21;12.15;;;7.13;;
50128;SDS011;36026;45.478;9.224;2022-10-31T04:21:27;11.87;;;6.93;;
50128;SDS011;36026;45.478;9.224;2022-10-31T04:24:29;13.63;;;7.10;;
50128;SDS011;36026;45.478;9.224;2022-10-31T04:27:31;9.75;;;6.47;;
50128;SDS011;36026;45.478;9.224;2022-10-31T04:30:33;13.00;;;6.93;;
50128;SDS011;36026;45.478;9.224;2022-10-31T04:33:34;15.40;;;6.28;;
50128;SDS011;36026;45.478;9.224;2022-10-31T04:36:37;10.27;;;5.95;;
50128;SDS011;36026;45.478;9.224;2022-10-31T04:39:39;10.60;;;6.20;;
50128;SDS011;36026;45.478;9.224;2022-10-31T04:42:40;13.15;;;5.97;;
50128;SDS011;36026;45.478;9.224;2022-10-31T04:45:42;11.13;;;6.40;;
50128;SDS011;36026;45.478;9.224;2022-10-31T04:48:43;12.45;;;6.60;;
50128;SDS011;36026;45.478;9.224;2022-10-31T04:51:46;10.68;;;6.45;;
50128;SDS011;36026;45.478;9.224;2022-10-31T04:54:48;15.30;;;6.53;;
50128;SDS011;36026;45.478;9.224;2022-10-31T04:57:49;11.00;;;6.18;;
50128;SDS011;36026;45.478;9.224;2022-10-31T05:00:51;13.05;;;6.57;;
50128;SDS011;36026;45.478;9.224;2022-10-31T05:03:53;10.15;;;6.05;;
50128;SDS011;36026;45.478;9.224;2022-10-31T05:06:56;12.18;;;6.78;;
50128;SDS011;36026;45.478;9.224;2022-10-31T05:09:58;12.03;;;6.10;;
50128;SDS011;36026;45.478;9.224;2022-10-31T05:13:00;16.70;;;6.25;;
50128;SDS011;36026;45.478;9.224;2022-10-31T05:16:02;20.73;;;7.13;;
50128;SDS011;36026;45.478;9.224;2022-10-31T05:19:04;14.38;;;7.35;;
50128;SDS011;36026;45.478;9.224;2022-10-31T05:22:07;13.93;;;6.70;;
50128;SDS011;36026;45.478;9.224;2022-10-31T05:25:09;11.83;;;6.40;;
50128;SDS011;36026;45.478;9.224;2022-10-31T05:28:10;12.93;;;6.57;;
50128;SDS011;36026;45.478;9.224;2022-10-31T05:31:12;14.63;;;7.07;;
50128;SDS011;36026;45.478;9.224;2022-10-31T05:34:14;12.38;;;7.35;;
50128;SDS011;36026;45.478;9.224;2022-10-31T05:37:17;12.07;;;7.05;;
50128;SDS011;36026;45.478;9.224;2022-10-31T05:40:19;10.97;;;7.37;;
50128;SDS011;36026;45.478;9.224;2022-10-31T05:43:21;13.45;;;7.70;;
50128;SDS011;36026;45.478;9.224;2022-10-31T05:46:22;12.27;;;7.30;;
50128;SDS011;36026;45.478;9.224;2022-10-31T05:49:24;13.80;;;7.28;;
50128;SDS011;36026;45.478;9.224;2022-10-31T05:52:27;16.60;;;7.53;;
50128;SDS011;36026;45.478;9.224;2022-10-31T05:55:29;16.33;;;8.10;;
50128;SDS011;36026;45.478;9.224;2022-10-31T05:58:31;19.20;;;7.80;;
50128;SDS011;36026;45.478;9.224;2022-10-31T06:01:32;14.48;;;8.32;;
50128;SDS011;36026;45.478;9.224;2022-10-31T06:04:34;16.58;;;8.65;;
50128;SDS011;36026;45.478;9.224;2022-10-31T06:07:37;16.45;;;8.82;;
50128;SDS011;36026;45.478;9.224;2022-10-31T06:10:38;14.40;;;8.50;;
50128;SDS011;36026;45.478;9.224;2022-10-31T06:13:40;16.50;;;8.90;;
50128;SDS011;36026;45.478;9.224;2022-10-31T06:16:42;16.60;;;8.57;;
50128;SDS011;36026;45.478;9.224;2022-10-31T06:19:43;16.77;;;8.10;;
50128;SDS011;36026;45.478;9.224;2022-10-31T06:22:46;16.50;;;9.27;;
50128;SDS011;36026;45.478;9.224;2022-10-31T06:25:48;12.43;;;8.17;;
50128;SDS011;36026;45.478;9.224;2022-10-31T06:28:50;16.52;;;8.68;;
50128;SDS011;36026;45.478;9.224;2022-10-31T06:31:51;14.48;;;8.25;;
50128;SDS011;36026;45.478;9.224;2022-10-31T06:34:53;13.70;;;8.57;;
50128;SDS011;36026;45.478;9.224;2022-10-31T06:37:56;15.05;;;8.65;;
50128;SDS011;36026;45.478;9.224;2022-10-31T06:41:01;13.13;;;8.07;;
50128;SDS011;36026;45.478;9.224;2022-10-31T06:44:03;13.77;;;8.50;;
50128;SDS011;36026;45.478;9.224;2022-10-31T06:47:05;17.42;;;8.80;;
50128;SDS011;36026;45.478;9.224;2022-10-31T06:50:07;15.05;;;8.77;;
50128;SDS011;36026;45.478;9.224;2022-10-31T06:53:11;14.48;;;8.32;;
50128;SDS011;36026;45.478;9.224;2022-10-31T06:56:13;24.42;;;8.93;;
50128;SDS011;36026;45.478;9.224;2022-10-31T06:59:14;18.63;;;9.23;;
50128;SDS011;36026;45.478;9.224;2022-10-31T07:02:16;16.08;;;8.90;;
50128;SDS011;36026;45.478;9.224;2022-10-31T07:05:18;16.75;;;8.95;;
50128;SDS011;36026;45.478;9.224;2022-10-31T07:08:21;14.02;;;8.35;;
50128;SDS011;36026;45.478;9.224;2022-10-31T07:11:22;14.73;;;9.60;;
50128;SDS011;36026;45.478;9.224;2022-10-31T07:14:24;17.83;;;9.57;;
50128;SDS011;36026;45.478;9.224;2022-10-31T07:17:25;13.95;;;8.57;;
50128;SDS011;36026;45.478;9.224;2022-10-31T07:20:27;17.55;;;8.25;;
50128;SDS011;36026;45.478;9.224;2022-10-31T07:23:30;15.05;;;7.65;;
50128;SDS011;36026;45.478;9.224;2022-10-31T07:26:31;12.68;;;7.00;;
50128;SDS011;36026;45.478;9.224;2022-10-31T07:29:33;14.43;;;6.90;;
50128;SDS011;36026;45.478;9.224;2022-10-31T07:32:38;10.38;;;6.38;;
50128;SDS011;36026;45.478;9.224;2022-10-31T07:35:40;15.15;;;7.00;;
50128;SDS011;36026;45.478;9.224;2022-10-31T07:38:43;13.32;;;7.28;;
50128;SDS011;36026;45.478;9.224;2022-10-31T07:41:44;14.48;;;7.07;;
50128;SDS011;36026;45.478;9.224;2022-10-31T07:44:46;12.10;;;6.70;;
50128;SDS011;36026;45.478;9.224;2022-10-31T07:47:48;13.80;;;6.90;;
50128;SDS011;36026;45.478;9.224;2022-10-31T07:50:50;12.07;;;6.82;;
50128;SDS011;36026;45.478;9.224;2022-10-31T07:53:53;16.67;;;7.68;;
50128;SDS011;36026;45.478;9.224;2022-10-31T07:56:55;12.10;;;6.70;;
50128;SDS011;36026;45.478;9.224;2022-10-31T07:59:56;12.63;;;7.15;;
50128;SDS011;36026;45.478;9.224;2022-10-31T08:02:58;13.75;;;6.65;;
50128;SDS011;36026;45.478;9.224;2022-10-31T08:06:00;10.40;;;6.57;;
50128;SDS011;36026;45.478;9.224;2022-10-31T08:09:03;17.23;;;7.78;;
50128;SDS011;36026;45.478;9.224;2022-10-31T08:12:05;11.38;;;6.85;;
50128;SDS011;36026;45.478;9.224;2022-10-31T08:15:07;13.00;;;7.60;;
50128;SDS011;36026;45.478;9.224;2022-10-31T08:18:11;15.93;;;7.60;;
50128;SDS011;36026;45.478;9.224;2022-10-31T08:21:14;13.40;;;6.85;;
50128;SDS011;36026;45.478;9.224;2022-10-31T08:24:17;14.88;;;7.30;;
50128;SDS011;36026;45.478;9.224;2022-10-31T08:27:19;12.27;;;7.30;;
50128;SDS011;36026;45.478;9.224;2022-10-31T08:30:21;18.00;;;7.13;;
50128;SDS011;36026;45.478;9.224;2022-10-31T08:33:23;13.00;;;7.30;;
50128;SDS011;36026;45.478;9.224;2022-10-31T08:36:26;14.75;;;8.40;;
50128;SDS011;36026;45.478;9.224;2022-10-31T08:39:29;14.85;;;8.25;;
50128;SDS011;36026;45.478;9.224;2022-10-31T08:42:31;16.63;;;8.73;;
50128;SDS011;36026;45.478;9.224;2022-10-31T08:45:33;17.13;;;10.20;;
50128;SDS011;36026;45.478;9.224;2022-10-31T08:48:35;15.83;;;9.97;;
50128;SDS011;36026;45.478;9.224;2022-10-31T08:51:37;15.35;;;8.95;;
50128;SDS011;36026;45.478;9.224;2022-10-31T08:54:39;14.13;;;8.98;;
50128;SDS011;36026;45.478;9.224;2022-10-31T08:57:41;17.02;;;9.82;;
50128;SDS011;36026;45.478;9.224;2022-10-31T09:00:43;15.25;;;9.45;;
50128;SDS011;36026;45.478;9.224;2022-10-31T09:03:45;18.20;;;10.60;;
50128;SDS011;36026;45.478;9.224;2022-10-31T09:06:46;17.98;;;10.35;;
50128;SDS011;36026;45.478;9.224;2022-10-31T09:09:49;16.80;;;10.30;;
50128;SDS011;36026;45.478;9.224;2022-10-31T09:12:54;16.10;;;10.43;;
50128;SDS011;36026;45.478;9.224;2022-10-31T09:15:56;15.55;;;9.93;;
50128;SDS011;36026;45.478;9.224;2022-10-31T09:18:58;16.55;;;8.45;;
50128;SDS011;36026;45.478;9.224;2022-10-31T09:22:00;17.75;;;8.98;;
50128;SDS011;36026;45.478;9.224;2022-10-31T09:25:03;20.20;;;8.85;;
50128;SDS011;36026;45.478;9.224;2022-10-31T09:28:05;12.00;;;7.82;;
50128;SDS011;36026;45.478;9.224;2022-10-31T09:34:09;13.55;;;7.93;;
50128;SDS011;36026;45.478;9.224;2022-10-31T09:37:11;12.55;;;8.27;;
50128;SDS011;36026;45.478;9.224;2022-10-31T09:40:14;12.23;;;8.52;;
50128;SDS011;36026;45.478;9.224;2022-10-31T09:43:17;14.85;;;8.75;;
50128;SDS011;36026;45.478;9.224;2022-10-31T09:46:25;15.45;;;8.63;;
50128;SDS011;36026;45.478;9.224;2022-10-31T09:49:34;17.77;;;8.93;;
50128;SDS011;36026;45.478;9.224;2022-10-31T09:52:43;15.98;;;8.00;;
50128;SDS011;36026;45.478;9.224;2022-10-31T09:55:50;12.45;;;7.57;;
50128;SDS011;36026;45.478;9.224;2022-10-31T09:58:53;14.63;;;8.02;;
50128;SDS011;36026;45.478;9.224;2022-10-31T10:01:58;10.52;;;6.80;;
50128;SDS011;36026;45.478;9.224;2022-10-31T10:05:03;13.60;;;7.90;;
50128;SDS011;36026;45.478;9.224;2022-10-31T10:08:07;9.63;;;6.75;;
50128;SDS011;36026;45.478;9.224;2022-10-31T10:11:20;10.05;;;6.07;;
50128;SDS011;36026;45.478;9.224;2022-10-31T10:14:41;10.88;;;6.70;;
50128;SDS011;36026;45.478;9.224;2022-10-31T10:17:49;8.57;;;5.65;;
50128;SDS011;36026;45.478;9.224;2022-10-31T10:21:03;15.00;;;6.03;;
50128;SDS011;36026;45.478;9.224;2022-10-31T10:24:21;10.13;;;6.28;;
50128;SDS011;36026;45.478;9.224;2022-10-31T10:27:39;10.10;;;7.43;;
50128;SDS011;36026;45.478;9.224;2022-10-31T10:33:52;11.35;;;6.78;;
50128;SDS011;36026;45.478;9.224;2022-10-31T10:37:00;13.10;;;6.43;;
50128;SDS011;36026;45.478;9.224;2022-10-31T10:40:06;14.82;;;6.07;;
50128;SDS011;36026;45.478;9.224;2022-10-31T10:43:19;13.90;;;5.50;;
50128;SDS011;36026;45.478;9.224;2022-10-31T10:46:24;9.50;;;5.57;;
50128;SDS011;36026;45.478;9.224;2022-10-31T10:49:49;13.55;;;5.85;;
50128;SDS011;36026;45.478;9.224;2022-10-31T10:52:53;10.88;;;6.57;;
50128;SDS011;36026;45.478;9.224;2022-10-31T10:56:00;9.75;;;5.63;;
50128;SDS011;36026;45.478;9.224;2022-10-31T10:59:07;10.55;;;7.00;;
50128;SDS011;36026;45.478;9.224;2022-10-31T11:02:15;11.05;;;5.88;;
50128;SDS011;36026;45.478;9.224;2022-10-31T11:05:20;11.25;;;6.55;;
50128;SDS011;36026;45.478;9.224;2022-10-31T11:08:26;10.40;;;6.68;;
50128;SDS011;36026;45.478;9.224;2022-10-31T11:11:29;10.45;;;6.32;;
50128;SDS011;36026;45.478;9.224;2022-10-31T11:14:33;10.68;;;5.78;;
50128;SDS011;36026;45.478;9.224;2022-10-31T11:17:38;7.82;;;4.97;;
50128;SDS011;36026;45.478;9.224;2022-10-31T11:20:41;12.10;;;5.30;;
50128;SDS011;36026;45.478;9.224;2022-10-31T11:24:01;6.27;;;4.70;;
50128;SDS011;36026;45.478;9.224;2022-10-31T11:27:09;8.65;;;4.65;;
50128;SDS011;36026;45.478;9.224;2022-10-31T11:30:16;9.45;;;4.82;;
50128;SDS011;36026;45.478;9.224;2022-10-31T11:33:19;8.07;;;5.15;;
50128;SDS011;36026;45.478;9.224;2022-10-31T11:36:25;9.07;;;4.53;;
50128;SDS011;36026;45.478;9.224;2022-10-31T11:39:27;10.43;;;5.30;;
50128;SDS011;36026;45.478;9.224;2022-10-31T11:42:30;9.30;;;4.30;;
50128;SDS011;36026;45.478;9.224;2022-10-31T11:45:38;10.02;;;5.45;;
50128;SDS011;36026;45.478;9.224;2022-10-31T11:48:40;10.43;;;5.18;;
50128;SDS011;36026;45.478;9.224;2022-10-31T11:51:48;10.75;;;5.55;;
50128;SDS011;36026;45.478;9.224;2022-10-31T11:54:52;8.52;;;4.95;;
50128;SDS011;36026;45.478;9.224;2022-10-31T11:57:55;10.73;;;4.47;;
50128;SDS011;36026;45.478;9.224;2022-10-31T12:00:58;7.93;;;4.30;;
50128;SDS011;36026;45.478;9.224;2022-10-31T12:04:02;10.00;;;4.47;;
50128;SDS011;36026;45.478;9.224;2022-10-31T12:07:07;9.23;;;4.80;;
50128;SDS011;36026;45.478;9.224;2022-10-31T12:10:10;9.98;;;4.93;;
50128;SDS011;36026;45.478;9.224;2022-10-31T12:13:16;9.70;;;4.57;;
50128;SDS011;36026;45.478;9.224;2022-10-31T12:16:34;7.78;;;4.47;;
50128;SDS011;36026;45.478;9.224;2022-10-31T12:19:42;9.63;;;4.30;;
50128;SDS011;36026;45.478;9.224;2022-10-31T12:22:47;9.95;;;4.25;;
50128;SDS011;36026;45.478;9.224;2022-10-31T12:25:57;9.55;;;4.07;;
50128;SDS011;36026;45.478;9.224;2022-10-31T12:29:07;8.45;;;4.45;;
50128;SDS011;36026;45.478;9.224;2022-10-31T12:32:22;9.48;;;4.10;;
50128;SDS011;36026;45.478;9.224;2022-10-31T12:35:39;7.97;;;3.92;;
50128;SDS011;36026;45.478;9.224;2022-10-31T12:38:46;9.37;;;4.40;;
50128;SDS011;36026;45.478;9.224;2022-10-31T12:45:01;11.95;;;4.10;;
50128;SDS011;36026;45.478;9.224;2022-10-31T12:48:18;8.88;;;3.80;;
50128;SDS011;36026;45.478;9.224;2022-10-31T12:51:28;7.15;;;3.45;;
50128;SDS011;36026;45.478;9.224;2022-10-31T12:54:38;10.13;;;4.00;;
50128;SDS011;36026;45.478;9.224;2022-10-31T12:57:51;8.10;;;3.60;;
50128;SDS011;36026;45.478;9.224;2022-10-31T13:00:58;8.07;;;3.70;;
50128;SDS011;36026;45.478;9.224;2022-10-31T13:04:15;9.25;;;4.63;;
50128;SDS011;36026;45.478;9.224;2022-10-31T13:07:22;6.60;;;3.67;;
50128;SDS011;36026;45.478;9.224;2022-10-31T13:10:27;8.68;;;3.70;;
50128;SDS011;36026;45.478;9.224;2022-10-31T13:13:33;7.72;;;3.85;;
50128;SDS011;36026;45.478;9.224;2022-10-31T13:16:37;7.65;;;3.97;;
50128;SDS011;36026;45.478;9.224;2022-10-31T13:19:42;8.25;;;3.63;;
50128;SDS011;36026;45.478;9.224;2022-10-31T13:22:45;7.75;;;3.67;;
50128;SDS011;36026;45.478;9.224;2022-10-31T13:25:50;9.00;;;3.50;;
50128;SDS011;36026;45.478;9.224;2022-10-31T13:28:56;7.65;;;3.10;;
50128;SDS011;36026;45.478;9.224;2022-10-31T13:32:03;7.43;;;3.28;;
50128;SDS011;36026;45.478;9.224;2022-10-31T13:35:08;8.50;;;3.50;;
50128;SDS011;36026;45.478;9.224;2022-10-31T13:38:17;7.20;;;3.58;;
50128;SDS011;36026;45.478;9.224;2022-10-31T13:41:26;8.23;;;3.80;;
50128;SDS011;36026;45.478;9.224;2022-10-31T13:47:37;9.27;;;3.80;;
50128;SDS011;36026;45.478;9.224;2022-10-31T13:50:40;11.30;;;3.63;;
50128;SDS011;36026;45.478;9.224;2022-10-31T13:53:43;8.48;;;3.10;;
50128;SDS011;36026;45.478;9.224;2022-10-31T13:56:48;9.25;;;3.38;;
50128;SDS011;36026;45.478;9.224;2022-10-31T13:59:50;8.95;;;4.25;;
50128;SDS011;36026;45.478;9.224;2022-10-31T14:02:53;7.07;;;3.78;;
50128;SDS011;36026;45.478;9.224;2022-10-31T14:05:58;8.18;;;3.58;;
50128;SDS011;36026;45.478;9.224;2022-10-31T14:09:00;10.95;;;4.22;;
50128;SDS011;36026;45.478;9.224;2022-10-31T14:12:03;10.00;;;3.90;;
50128;SDS011;36026;45.478;9.224;2022-10-31T14:15:13;12.35;;;4.13;;
50128;SDS011;36026;45.478;9.224;2022-10-31T14:18:19;5.28;;;3.78;;
50128;SDS011;36026;45.478;9.224;2022-10-31T14:21:28;8.55;;;3.47;;
50128;SDS011;36026;45.478;9.224;2022-10-31T14:24:31;9.10;;;3.53;;
50128;SDS011;36026;45.478;9.224;2022-10-31T14:27:44;8.95;;;3.75;;
50128;SDS011;36026;45.478;9.224;2022-10-31T14:30:51;9.65;;;4.00;;
50128;SDS011;36026;45.478;9.224;2022-10-31T14:33:53;5.60;;;3.22;;
50128;SDS011;36026;45.478;9.224;2022-10-31T14:36:59;6.63;;;3.10;;
50128;SDS011;36026;45.478;9.224;2022-10-31T14:40:10;9.23;;;3.60;;
50128;SDS011;36026;45.478;9.224;2022-10-31T14:47:04;9.85;;;2.95;;
50128;SDS011;36026;45.478;9.224;2022-10-31T14:50:24;11.82;;;3.83;;
50128;SDS011;36026;45.478;9.224;2022-10-31T14:53:33;10.70;;;3.42;;
50128;SDS011;36026;45.478;9.224;2022-10-31T14:56:37;7.72;;;3.70;;
50128;SDS011;36026;45.478;9.224;2022-10-31T14:59:44;9.18;;;3.80;;
50128;SDS011;36026;45.478;9.224;2022-10-31T15:02:52;6.35;;;3.42;;
50128;SDS011;36026;45.478;9.224;2022-10-31T15:06:00;7.47;;;3.17;;
50128;SDS011;36026;45.478;9.224;2022-10-31T15:09:04;6.53;;;3.03;;
50128;SDS011;36026;45.478;9.224;2022-10-31T15:15:25;7.57;;;3.47;;
50128;SDS011;36026;45.478;9.224;2022-10-31T15:18:27;9.15;;;3.55;;
50128;SDS011;36026;45.478;9.224;2022-10-31T15:21:29;14.27;;;3.57;;
50128;SDS011;36026;45.478;9.224;2022-10-31T15:24:33;10.85;;;3.53;;
50128;SDS011;36026;45.478;9.224;2022-10-31T15:27:36;10.65;;;3.17;;
50128;SDS011;36026;45.478;9.224;2022-10-31T15:30:49;12.05;;;3.90;;
50128;SDS011;36026;45.478;9.224;2022-10-31T15:33:51;15.68;;;4.15;;
50128;SDS011;36026;45.478;9.224;2022-10-31T15:36:57;10.30;;;3.53;;
50128;SDS011;36026;45.478;9.224;2022-10-31T15:40:07;9.75;;;3.60;;
50128;SDS011;36026;45.478;9.224;2022-10-31T15:43:13;9.40;;;3.97;;
50128;SDS011;36026;45.478;9.224;2022-10-31T15:46:17;8.82;;;4.35;;
50128;SDS011;36026;45.478;9.224;2022-10-31T15:49:22;10.43;;;4.38;;
50128;SDS011;36026;45.478;9.224;2022-10-31T15:52:30;15.55;;;4.80;;
50128;SDS011;36026;45.478;9.224;2022-10-31T15:55:36;13.70;;;5.05;;
50128;SDS011;36026;45.478;9.224;2022-10-31T15:58:41;14.10;;;4.90;;
50128;SDS011;36026;45.478;9.224;2022-10-31T16:01:53;12.20;;;4.75;;
50128;SDS011;36026;45.478;9.224;2022-10-31T16:05:00;13.15;;;4.60;;
50128;SDS011;36026;45.478;9.224;2022-10-31T16:08:03;13.35;;;4.97;;
50128;SDS011;36026;45.478;9.224;2022-10-31T16:14:38;11.10;;;4.60;;
50128;SDS011;36026;45.478;9.224;2022-10-31T16:17:41;10.88;;;4.78;;
50128;SDS011;36026;45.478;9.224;2022-10-31T16:20:47;24.17;;;5.95;;
50128;SDS011;36026;45.478;9.224;2022-10-31T16:23:54;15.70;;;5.68;;
50128;SDS011;36026;45.478;9.224;2022-10-31T16:27:00;19.05;;;5.53;;
50128;SDS011;36026;45.478;9.224;2022-10-31T16:33:30;13.90;;;4.40;;
50128;SDS011;36026;45.478;9.224;2022-10-31T16:36:33;8.93;;;4.07;;
50128;SDS011;36026;45.478;9.224;2022-10-31T16:39:38;11.85;;;4.47;;
50128;SDS011;36026;45.478;9.224;2022-10-31T16:42:41;14.52;;;5.75;;
50128;SDS011;36026;45.478;9.224;2022-10-31T16:45:43;20.67;;;7.00;;
50128;SDS011;36026;45.478;9.224;2022-10-31T16:48:46;24.80;;;6.60;;
50128;SDS011;36026;45.478;9.224;2022-10-31T16:51:48;27.63;;;7.70;;
50128;SDS011;36026;45.478;9.224;2022-10-31T16:54:49;16.63;;;6.90;;
50128;SDS011;36026;45.478;9.224;2022-10-31T16:57:52;13.35;;;5.38;;
50128;SDS011;36026;45.478;9.224;2022-10-31T17:00:56;18.27;;;4.97;;
50128;SDS011;36026;45.478;9.224;2022-10-31T17:03:58;15.43;;;4.88;;
50128;SDS011;36026;45.478;9.224;2022-10-31T17:07:00;15.63;;;6.72;;
50128;SDS011;36026;45.478;9.224;2022-10-31T17:10:02;15.00;;;6.10;;
50128;SDS011;36026;45.478;9.224;2022-10-31T17:13:06;12.50;;;5.78;;
50128;SDS011;36026;45.478;9.224;2022-10-31T17:16:11;19.23;;;5.68;;
50128;SDS011;36026;45.478;9.224;2022-10-31T17:22:15;13.20;;;5.50;;
50128;SDS011;36026;45.478;9.224;2022-10-31T17:25:18;16.25;;;5.43;;
50128;SDS011;36026;45.478;9.224;2022-10-31T17:28:23;14.68;;;6.32;;
50128;SDS011;36026;45.478;9.224;2022-10-31T17:31:26;16.10;;;6.32;;
50128;SDS011;36026;45.478;9.224;2022-10-31T17:34:29;17.25;;;6.60;;
50128;SDS011;36026;45.478;9.224;2022-10-31T17:37:30;17.23;;;5.90;;
50128;SDS011;36026;45.478;9.224;2022-10-31T17:40:32;18.05;;;6.40;;
50128;SDS011;36026;45.478;9.224;2022-10-31T17:43:35;17.40;;;6.78;;
50128;SDS011;36026;45.478;9.224;2022-10-31T17:46:37;14.77;;;7.03;;
50128;SDS011;36026;45.478;9.224;2022-10-31T17:49:38;13.02;;;5.60;;
50128;SDS011;36026;45.478;9.224;2022-10-31T17:52:40;13.73;;;6.03;;
50128;SDS011;36026;45.478;9.224;2022-10-31T17:55:41;14.35;;;6.30;;
50128;SDS011;36026;45.478;9.224;2022-10-31T17:58:44;18.70;;;6.72;;
50128;SDS011;36026;45.478;9.224;2022-10-31T18:01:46;16.55;;;6.57;;
50128;SDS011;36026;45.478;9.224;2022-10-31T18:04:48;15.25;;;6.85;;
50128;SDS011;36026;45.478;9.224;2022-10-31T18:07:50;20.10;;;7.35;;
50128;SDS011;36026;45.478;9.224;2022-10-31T18:10:51;15.05;;;6.65;;
50128;SDS011;36026;45.478;9.224;2022-10-31T18:13:55;21.40;;;8.60;;
50128;SDS011;36026;45.478;9.224;2022-10-31T18:16:57;16.67;;;6.68;;
50128;SDS011;36026;45.478;9.224;2022-10-31T18:19:59;18.38;;;6.70;;
50128;SDS011;36026;45.478;9.224;2022-10-31T18:23:00;19.15;;;7.15;;
50128;SDS011;36026;45.478;9.224;2022-10-31T18:26:02;22.48;;;7.72;;
50128;SDS011;36026;45.478;9.224;2022-10-31T18:29:05;20.50;;;7.45;;
50128;SDS011;36026;45.478;9.224;2022-10-31T18:32:07;21.73;;;8.18;;
50128;SDS011;36026;45.478;9.224;2022-10-31T18:35:09;21.15;;;8.43;;
50128;SDS011;36026;45.478;9.224;2022-10-31T18:38:10;18.85;;;8.13;;
50128;SDS011;36026;45.478;9.224;2022-10-31T18:41:12;24.50;;;8.95;;
50128;SDS011;36026;45.478;9.224;2022-10-31T18:44:16;22.88;;;8.88;;
50128;SDS011;36026;45.478;9.224;2022-10-31T18:47:17;19.38;;;7.95;;
50128;SDS011;36026;45.478;9.224;2022-10-31T18:50:19;19.58;;;8.15;;
50128;SDS011;36026;45.478;9.224;2022-10-31T18:53:21;16.95;;;8.63;;